sensor_id;sensor_type;location;lat;lon;timestamp;pressure;altitude;pressure_sealevel;temperature;humidity
11085;BME280;5596;46.826;8.650;2022-10-31T00:00:16;96758.25;;;11.24;100.00
11085;BME280;5596;46.826;8.650;2022-10-31T00:02:44;96766.59;;;11.23;100.00
11085;BME280;5596;46.826;8.650;2022-10-31T00:05:11;96757.06;;;11.20;100.00
11085;BME280;5596;46.826;8.650;2022-10-31T00:07:40;96749.56;;;11.22;100.00
11085;BME280;5596;46.826;8.650;2022-10-31T00:10:08;96745.88;;;11.17;100.00
11085;BME280;5596;46.826;8.650;2022-10-31T00:12:35;96738.59;;;11.17;100.00
11085;BME280;5596;46.826;8.650;2022-10-31T00:15:02;96730.19;;;11.25;100.00
11085;BME280;5596;46.826;8.650;2022-10-31T00:17:30;96753.06;;;11.23;100.00
11085;BME280;5596;46.826;8.650;2022-10-31T00:19:57;96754.19;;;11.15;100.00
11085;BME280;5596;46.826;8.650;2022-10-31T00:22:24;96731.81;;;11.08;100.00
11085;BME280;5596;46.826;8.650;2022-10-31T00:24:53;96739.31;;;11.06;100.00
11085;BME280;5596;46.826;8.650;2022-10-31T00:27:20;96738.22;;;11.14;100.00
11085;BME280;5596;46.826;8.650;2022-10-31T00:29:47;96725.06;;;10.99;100.00
11085;BME280;5596;46.826;8.650;2022-10-31T00:32:14;96743.53;;;11.02;100.00
11085;BME280;5596;46.826;8.650;2022-10-31T00:34:41;96739.03;;;10.96;100.00
11085;BME280;5596;46.826;8.650;2022-10-31T00:37:08;96735.94;;;10.92;100.00
11085;BME280;5596;46.826;8.650;2022-10-31T00:39:35;96730.09;;;10.95;100.00
11085;BME280;5596;46.826;8.650;2022-10-31T00:42:04;96725.97;;;10.93;100.00
11085;BME280;5596;46.826;8.650;2022-10-31T00:44:31;96725.28;;;10.97;100.00
11085;BME280;5596;46.826;8.650;2022-10-31T00:46:58;96721.59;;;10.92;100.00
11085;BME280;5596;46.826;8.650;2022-10-31T00:49:25;96739.63;;;10.98;100.00
11085;BME280;5596;46.826;8.650;2022-10-31T00:51:53;96719.81;;;10.86;100.00
11085;BME280;5596;46.826;8.650;2022-10-31T00:54:19;96737.81;;;10.92;100.00
11085;BME280;5596;46.826;8.650;2022-10-31T00:56:46;96741.03;;;10.82;100.00
11085;BME280;5596;46.826;8.650;2022-10-31T00:59:15;96734.22;;;10.80;100.00
11085;BME280;5596;46.826;8.650;2022-10-31T01:01:42;96733.59;;;10.78;100.00
11085;BME280;5596;46.826;8.650;2022-10-31T01:04:09;96714.22;;;10.63;100.00
11085;BME280;5596;46.826;8.650;2022-10-31T01:06:36;96714.03;;;10.57;100.00
11085;BME280;5596;46.826;8.650;2022-10-31T01:09:03;96715.53;;;10.53;100.00
11085;BME280;5596;46.826;8.650;2022-10-31T01:11:31;96716.13;;;10.55;100.00
11085;BME280;5596;46.826;8.650;2022-10-31T01:13:58;96723.56;;;10.60;100.00
11085;BME280;5596;46.826;8.650;2022-10-31T01:16:27;96711.19;;;10.52;100.00
11085;BME280;5596;46.826;8.650;2022-10-31T01:18:56;96718.19;;;10.60;100.00
11085;BME280;5596;46.826;8.650;2022-10-31T01:21:27;96723.16;;;10.63;100.00
11085;BME280;5596;46.826;8.650;2022-10-31T01:23:57;96720.44;;;10.63;100.00
11085;BME280;5596;46.826;8.650;2022-10-31T01:26:27;96723.34;;;10.61;100.00
11085;BME280;5596;46.826;8.650;2022-10-31T01:28:56;96720.88;;;10.60;100.00
11085;BME280;5596;46.826;8.650;2022-10-31T01:31:26;96703.31;;;10.51;100.00
11085;BME280;5596;46.826;8.650;2022-10-31T01:33:54;96697.91;;;10.51;100.00
11085;BME280;5596;46.826;8.650;2022-10-31T01:36:23;96706.97;;;10.56;100.00
11085;BME280;5596;46.826;8.650;2022-10-31T01:38:52;96688.81;;;10.45;100.00
11085;BME280;5596;46.826;8.650;2022-10-31T01:41:21;96700.38;;;10.52;100.00
11085;BME280;5596;46.826;8.650;2022-10-31T01:43:51;96715.09;;;10.56;100.00
11085;BME280;5596;46.826;8.650;2022-10-31T01:46:22;96713.41;;;10.55;100.00
11085;BME280;5596;46.826;8.650;2022-10-31T01:48:53;96696.94;;;10.39;100.00
11085;BME280;5596;46.826;8.650;2022-10-31T01:51:25;96703.38;;;10.44;100.00
11085;BME280;5596;46.826;8.650;2022-10-31T01:53:54;96714.75;;;10.46;100.00
11085;BME280;5596;46.826;8.650;2022-10-31T01:56:25;96707.16;;;10.37;100.00
11085;BME280;5596;46.826;8.650;2022-10-31T01:58:54;96705.44;;;10.42;100.00
11085;BME280;5596;46.826;8.650;2022-10-31T02:01:23;96708.16;;;10.42;100.00
11085;BME280;5596;46.826;8.650;2022-10-31T02:03:51;96701.22;;;10.28;100.00
11085;BME280;5596;46.826;8.650;2022-10-31T02:06:29;96710.16;;;10.22;100.00
11085;BME280;5596;46.826;8.650;2022-10-31T02:08:58;96713.41;;;10.31;100.00
11085;BME280;5596;46.826;8.650;2022-10-31T02:11:27;96697.91;;;10.26;100.00
11085;BME280;5596;46.826;8.650;2022-10-31T02:13:55;96697.91;;;10.26;100.00
11085;BME280;5596;46.826;8.650;2022-10-31T02:16:22;96700.59;;;10.26;100.00
11085;BME280;5596;46.826;8.650;2022-10-31T02:18:49;96710.34;;;10.27;100.00
11085;BME280;5596;46.826;8.650;2022-10-31T02:21:21;96709.94;;;10.23;100.00
11085;BME280;5596;46.826;8.650;2022-10-31T02:27:21;96713.06;;;10.27;100.00
11085;BME280;5596;46.826;8.650;2022-10-31T02:30:04;96710.63;;;10.19;100.00
11085;BME280;5596;46.826;8.650;2022-10-31T02:35:45;96708.63;;;10.01;100.00
11085;BME280;5596;46.826;8.650;2022-10-31T02:38:25;96711.97;;;10.03;100.00
11085;BME280;5596;46.826;8.650;2022-10-31T02:41:02;96695.84;;;9.90;100.00
11085;BME280;5596;46.826;8.650;2022-10-31T02:43:56;96712.13;;;10.08;100.00
11085;BME280;5596;46.826;8.650;2022-10-31T02:46:30;96708.63;;;10.01;100.00
11085;BME280;5596;46.826;8.650;2022-10-31T02:49:05;96709.88;;;9.99;100.00
11085;BME280;5596;46.826;8.650;2022-10-31T02:51:35;96706.16;;;10.00;100.00
11085;BME280;5596;46.826;8.650;2022-10-31T02:54:03;96702.84;;;9.98;100.00
11085;BME280;5596;46.826;8.650;2022-10-31T02:56:30;96709.88;;;9.99;100.00
11085;BME280;5596;46.826;8.650;2022-10-31T02:58:59;96714.09;;;9.95;100.00
11085;BME280;5596;46.826;8.650;2022-10-31T03:01:43;96712.22;;;9.95;100.00
11085;BME280;5596;46.826;8.650;2022-10-31T03:04:36;96700.34;;;9.96;100.00
11085;BME280;5596;46.826;8.650;2022-10-31T03:07:12;96700.59;;;9.95;100.00
11085;BME280;5596;46.826;8.650;2022-10-31T03:09:51;96699.78;;;9.87;100.00
11085;BME280;5596;46.826;8.650;2022-10-31T03:12:27;96696.06;;;9.88;100.00
11085;BME280;5596;46.826;8.650;2022-10-31T03:15:01;96703.78;;;9.85;100.00
11085;BME280;5596;46.826;8.650;2022-10-31T03:17:36;96705.81;;;9.90;100.00
11085;BME280;5596;46.826;8.650;2022-10-31T03:20:09;96697.53;;;9.84;100.00
11085;BME280;5596;46.826;8.650;2022-10-31T03:22:37;96694.19;;;9.89;100.00
11085;BME280;5596;46.826;8.650;2022-10-31T03:25:07;96690.66;;;9.88;100.00
11085;BME280;5596;46.826;8.650;2022-10-31T03:27:37;96691.28;;;9.91;100.00
11085;BME280;5596;46.826;8.650;2022-10-31T03:30:07;96693.41;;;9.82;100.00
11085;BME280;5596;46.826;8.650;2022-10-31T03:32:49;96691.09;;;9.85;100.00
11085;BME280;5596;46.826;8.650;2022-10-31T03:35:20;96690.28;;;9.78;100.00
11085;BME280;5596;46.826;8.650;2022-10-31T03:37:51;96688.47;;;9.72;100.00
11085;BME280;5596;46.826;8.650;2022-10-31T03:40:20;96684.91;;;9.78;100.00
11085;BME280;5596;46.826;8.650;2022-10-31T03:42:53;96677.66;;;9.79;100.00
11085;BME280;5596;46.826;8.650;2022-10-31T03:45:24;96678.94;;;9.76;100.00
11085;BME280;5596;46.826;8.650;2022-10-31T03:47:53;96682.72;;;9.69;100.00
11085;BME280;5596;46.826;8.650;2022-10-31T03:50:24;96674.38;;;9.70;100.00
11085;BME280;5596;46.826;8.650;2022-10-31T03:52:57;96662.19;;;9.61;100.00
11085;BME280;5596;46.826;8.650;2022-10-31T03:55:32;96663.00;;;9.68;100.00
11085;BME280;5596;46.826;8.650;2022-10-31T03:58:06;96663.59;;;9.70;100.00
11085;BME280;5596;46.826;8.650;2022-10-31T04:00:39;96671.09;;;9.68;100.00
11085;BME280;5596;46.826;8.650;2022-10-31T04:03:10;96668.41;;;9.68;100.00
11085;BME280;5596;46.826;8.650;2022-10-31T04:05:45;96645.91;;;9.49;100.00
11085;BME280;5596;46.826;8.650;2022-10-31T04:08:17;96640.47;;;9.56;100.00
11085;BME280;5596;46.826;8.650;2022-10-31T04:10:47;96658.03;;;9.65;100.00
11085;BME280;5596;46.826;8.650;2022-10-31T04:13:20;96638.38;;;9.58;100.00
11085;BME280;5596;46.826;8.650;2022-10-31T04:15:57;96648.47;;;9.69;100.00
11085;BME280;5596;46.826;8.650;2022-10-31T04:18:25;96646.00;;;9.68;100.00
11085;BME280;5596;46.826;8.650;2022-10-31T04:21:01;96652.28;;;9.55;100.00
11085;BME280;5596;46.826;8.650;2022-10-31T04:23:30;96646.31;;;9.46;100.00
11085;BME280;5596;46.826;8.650;2022-10-31T04:25:58;96651.09;;;9.44;100.00
11085;BME280;5596;46.826;8.650;2022-10-31T04:28:26;96649.84;;;9.47;100.00
11085;BME280;5596;46.826;8.650;2022-10-31T04:30:53;96629.19;;;9.34;100.00
11085;BME280;5596;46.826;8.650;2022-10-31T04:33:21;96629.56;;;9.38;100.00
11085;BME280;5596;46.826;8.650;2022-10-31T04:35:48;96640.50;;;9.49;100.00
11085;BME280;5596;46.826;8.650;2022-10-31T04:38:17;96646.88;;;9.55;100.00
11085;BME280;5596;46.826;8.650;2022-10-31T04:40:45;96646.72;;;9.50;100.00
11085;BME280;5596;46.826;8.650;2022-10-31T04:43:30;96649.88;;;9.40;100.00
11085;BME280;5596;46.826;8.650;2022-10-31T04:45:59;96654.28;;;9.35;100.00
11085;BME280;5596;46.826;8.650;2022-10-31T04:48:26;96652.84;;;9.32;100.00
11085;BME280;5596;46.826;8.650;2022-10-31T04:50:58;96656.78;;;9.30;100.00
11085;BME280;5596;46.826;8.650;2022-10-31T04:53:28;96658.84;;;9.28;100.00
11085;BME280;5596;46.826;8.650;2022-10-31T04:56:13;96643.75;;;9.27;100.00
11085;BME280;5596;46.826;8.650;2022-10-31T04:58:43;96650.38;;;9.24;100.00
11085;BME280;5596;46.826;8.650;2022-10-31T05:01:13;96637.53;;;9.26;100.00
11085;BME280;5596;46.826;8.650;2022-10-31T05:03:41;96633.84;;;9.14;100.00
11085;BME280;5596;46.826;8.650;2022-10-31T05:06:08;96644.38;;;9.22;100.00
11085;BME280;5596;46.826;8.650;2022-10-31T05:08:41;96639.81;;;9.23;100.00
11085;BME280;5596;46.826;8.650;2022-10-31T05:11:10;96636.50;;;9.21;100.00
11085;BME280;5596;46.826;8.650;2022-10-31T05:13:37;96618.34;;;9.09;100.00
11085;BME280;5596;46.826;8.650;2022-10-31T05:16:10;96633.59;;;9.22;100.00
11085;BME280;5596;46.826;8.650;2022-10-31T05:18:56;96630.28;;;9.20;100.00
11085;BME280;5596;46.826;8.650;2022-10-31T05:21:41;96631.94;;;9.21;100.00
11085;BME280;5596;46.826;8.650;2022-10-31T05:24:12;96631.94;;;9.21;100.00
11085;BME280;5596;46.826;8.650;2022-10-31T05:26:43;96616.47;;;9.03;100.00
11085;BME280;5596;46.826;8.650;2022-10-31T05:29:12;96616.47;;;9.03;100.00
11085;BME280;5596;46.826;8.650;2022-10-31T05:31:40;96630.31;;;9.14;100.00
11085;BME280;5596;46.826;8.650;2022-10-31T05:34:14;96631.56;;;9.11;100.00
11085;BME280;5596;46.826;8.650;2022-10-31T05:36:44;96610.88;;;9.05;100.00
11085;BME280;5596;46.826;8.650;2022-10-31T05:39:16;96621.66;;;9.05;100.00
11085;BME280;5596;46.826;8.650;2022-10-31T05:41:47;96624.56;;;9.03;100.00
11085;BME280;5596;46.826;8.650;2022-10-31T05:44:34;96616.47;;;9.03;100.00
11085;BME280;5596;46.826;8.650;2022-10-31T05:47:07;96609.63;;;9.07;100.00
11085;BME280;5596;46.826;8.650;2022-10-31T05:49:53;96611.88;;;9.10;100.00
11085;BME280;5596;46.826;8.650;2022-10-31T05:52:38;96607.94;;;9.13;100.00
11085;BME280;5596;46.826;8.650;2022-10-31T05:55:20;96619.38;;;9.08;100.00
11085;BME280;5596;46.826;8.650;2022-10-31T05:58:07;96601.19;;;8.97;100.00
11085;BME280;5596;46.826;8.650;2022-10-31T06:00:37;96610.88;;;9.05;100.00
11085;BME280;5596;46.826;8.650;2022-10-31T06:03:11;96589.78;;;8.95;100.00
11085;BME280;5596;46.826;8.650;2022-10-31T06:05:46;96595.13;;;9.02;100.00
11085;BME280;5596;46.826;8.650;2022-10-31T06:08:15;96603.63;;;9.05;100.00
11085;BME280;5596;46.826;8.650;2022-10-31T06:10:44;96607.81;;;9.01;100.00
11085;BME280;5596;46.826;8.650;2022-10-31T06:13:14;96620.41;;;9.07;100.00
11085;BME280;5596;46.826;8.650;2022-10-31T06:15:47;96612.94;;;9.09;100.00
11085;BME280;5596;46.826;8.650;2022-10-31T06:18:16;96621.63;;;9.11;100.00
11085;BME280;5596;46.826;8.650;2022-10-31T06:20:46;96608.34;;;9.17;100.00
11085;BME280;5596;46.826;8.650;2022-10-31T06:23:14;96627.84;;;9.12;100.00
11085;BME280;5596;46.826;8.650;2022-10-31T06:25:48;96615.41;;;9.11;100.00
11085;BME280;5596;46.826;8.650;2022-10-31T06:28:16;96602.97;;;9.17;100.00
11085;BME280;5596;46.826;8.650;2022-10-31T06:30:49;96608.53;;;9.22;100.00
11085;BME280;5596;46.826;8.650;2022-10-31T06:33:17;96594.44;;;9.20;100.00
11085;BME280;5596;46.826;8.650;2022-10-31T06:35:54;96599.16;;;9.31;100.00
11085;BME280;5596;46.826;8.650;2022-10-31T06:38:21;96615.72;;;9.28;100.00
11085;BME280;5596;46.826;8.650;2022-10-31T06:40:50;96613.50;;;9.25;100.00
11085;BME280;5596;46.826;8.650;2022-10-31T06:43:22;96617.84;;;9.26;100.00
11085;BME280;5596;46.826;8.650;2022-10-31T06:46:02;96617.38;;;9.29;100.00
11085;BME280;5596;46.826;8.650;2022-10-31T06:48:45;96619.41;;;9.40;100.00
11085;BME280;5596;46.826;8.650;2022-10-31T06:51:20;96620.03;;;9.42;100.00
11085;BME280;5596;46.826;8.650;2022-10-31T06:53:50;96607.63;;;9.34;100.00
11085;BME280;5596;46.826;8.650;2022-10-31T06:56:19;96623.16;;;9.39;100.00
11085;BME280;5596;46.826;8.650;2022-10-31T06:58:50;96614.91;;;9.27;100.00
11085;BME280;5596;46.826;8.650;2022-10-31T07:01:28;96610.13;;;9.29;100.00
11085;BME280;5596;46.826;8.650;2022-10-31T07:03:56;96620.69;;;9.31;100.00
11085;BME280;5596;46.826;8.650;2022-10-31T07:06:23;96616.53;;;9.35;100.00
11085;BME280;5596;46.826;8.650;2022-10-31T07:08:50;96619.38;;;9.46;100.00
11085;BME280;5596;46.826;8.650;2022-10-31T07:11:19;96617.69;;;9.52;100.00
11085;BME280;5596;46.826;8.650;2022-10-31T07:13:46;96618.69;;;9.58;100.00
11085;BME280;5596;46.826;8.650;2022-10-31T07:16:14;96620.94;;;9.61;100.00
11085;BME280;5596;46.826;8.650;2022-10-31T07:18:42;96619.06;;;9.61;100.00
11085;BME280;5596;46.826;8.650;2022-10-31T07:21:11;96616.81;;;9.58;100.00
11085;BME280;5596;46.826;8.650;2022-10-31T07:23:39;96614.34;;;9.57;100.00
11085;BME280;5596;46.826;8.650;2022-10-31T07:26:26;96617.75;;;9.70;100.00
11085;BME280;5596;46.826;8.650;2022-10-31T07:28:53;96610.13;;;9.67;100.00
11085;BME280;5596;46.826;8.650;2022-10-31T07:31:23;96630.38;;;9.76;100.00
11085;BME280;5596;46.826;8.650;2022-10-31T07:33:52;96613.75;;;9.79;100.00
11085;BME280;5596;46.826;8.650;2022-10-31T07:36:26;96618.28;;;9.85;100.00
11085;BME280;5596;46.826;8.650;2022-10-31T07:38:57;96634.63;;;9.91;100.00
11085;BME280;5596;46.826;8.650;2022-10-31T07:41:27;96623.91;;;9.84;100.00
11085;BME280;5596;46.826;8.650;2022-10-31T07:43:54;96634.84;;;9.89;100.00
11085;BME280;5596;46.826;8.650;2022-10-31T07:46:40;96638.16;;;9.91;100.00
11085;BME280;5596;46.826;8.650;2022-10-31T07:49:45;96642.88;;;9.96;100.00
11085;BME280;5596;46.826;8.650;2022-10-31T07:52:35;96633.09;;;10.01;100.00
11085;BME280;5596;46.826;8.650;2022-10-31T07:55:24;96627.66;;;10.08;100.00
11085;BME280;5596;46.826;8.650;2022-10-31T07:57:58;96635.31;;;10.11;100.00
11085;BME280;5596;46.826;8.650;2022-10-31T08:00:29;96622.41;;;10.13;100.00
11085;BME280;5596;46.826;8.650;2022-10-31T08:02:58;96629.66;;;10.12;100.00
11085;BME280;5596;46.826;8.650;2022-10-31T08:05:45;96630.28;;;10.14;100.00
11085;BME280;5596;46.826;8.650;2022-10-31T08:08:27;96636.72;;;10.20;100.00
11085;BME280;5596;46.826;8.650;2022-10-31T08:10:55;96642.28;;;10.25;100.00
11085;BME280;5596;46.826;8.650;2022-10-31T08:13:23;96639.91;;;10.35;100.00
11085;BME280;5596;46.826;8.650;2022-10-31T08:15:52;96640.03;;;10.40;100.00
11085;BME280;5596;46.826;8.650;2022-10-31T08:18:24;96638.34;;;10.46;100.00
11085;BME280;5596;46.826;8.650;2022-10-31T08:20:53;96638.06;;;10.54;100.00
11085;BME280;5596;46.826;8.650;2022-10-31T08:23:20;96633.78;;;10.65;100.00
11085;BME280;5596;46.826;8.650;2022-10-31T08:25:47;96629.97;;;10.72;100.00
11085;BME280;5596;46.826;8.650;2022-10-31T08:28:15;96621.81;;;10.79;100.00
11085;BME280;5596;46.826;8.650;2022-10-31T08:30:45;96631.69;;;10.85;100.00
11085;BME280;5596;46.826;8.650;2022-10-31T08:33:36;96648.88;;;10.90;100.00
11085;BME280;5596;46.826;8.650;2022-10-31T08:36:18;96633.66;;;10.96;100.00
11085;BME280;5596;46.826;8.650;2022-10-31T08:38:54;96637.56;;;11.00;100.00
11085;BME280;5596;46.826;8.650;2022-10-31T08:41:21;96634.72;;;11.13;100.00
11085;BME280;5596;46.826;8.650;2022-10-31T08:43:48;96632.88;;;11.25;100.00
11085;BME280;5596;46.826;8.650;2022-10-31T08:46:18;96627.16;;;11.33;100.00
11085;BME280;5596;46.826;8.650;2022-10-31T08:48:47;96611.91;;;11.39;100.00
11085;BME280;5596;46.826;8.650;2022-10-31T08:51:15;96612.75;;;11.51;100.00
11085;BME280;5596;46.826;8.650;2022-10-31T08:53:43;96618.84;;;11.65;100.00
11085;BME280;5596;46.826;8.650;2022-10-31T08:56:34;96629.94;;;11.75;100.00
11085;BME280;5596;46.826;8.650;2022-10-31T08:59:04;96612.78;;;11.81;100.00
11085;BME280;5596;46.826;8.650;2022-10-31T09:01:50;96627.38;;;11.92;100.00
11085;BME280;5596;46.826;8.650;2022-10-31T09:04:17;96627.16;;;11.93;100.00
11085;BME280;5596;46.826;8.650;2022-10-31T09:06:44;96615.88;;;11.96;100.00
11085;BME280;5596;46.826;8.650;2022-10-31T09:09:13;96616.22;;;12.00;100.00
11085;BME280;5596;46.826;8.650;2022-10-31T09:11:40;96624.72;;;12.03;100.00
11085;BME280;5596;46.826;8.650;2022-10-31T09:14:10;96626.72;;;12.08;100.00
11085;BME280;5596;46.826;8.650;2022-10-31T09:16:57;96621.06;;;12.09;100.00
11085;BME280;5596;46.826;8.650;2022-10-31T09:19:37;96628.50;;;12.14;100.00
11085;BME280;5596;46.826;8.650;2022-10-31T09:22:06;96635.31;;;12.17;100.00
11085;BME280;5596;46.826;8.650;2022-10-31T09:24:33;96634.50;;;12.16;100.00
11085;BME280;5596;46.826;8.650;2022-10-31T09:27:01;96632.03;;;12.15;100.00
11085;BME280;5596;46.826;8.650;2022-10-31T09:29:28;96627.56;;;12.20;100.00
11085;BME280;5596;46.826;8.650;2022-10-31T09:31:59;96626.75;;;12.20;100.00
11085;BME280;5596;46.826;8.650;2022-10-31T09:34:28;96640.28;;;12.31;100.00
11085;BME280;5596;46.826;8.650;2022-10-31T09:37:06;96635.81;;;12.37;100.00
11085;BME280;5596;46.826;8.650;2022-10-31T09:39:34;96633.22;;;12.30;100.00
11085;BME280;5596;46.826;8.650;2022-10-31T09:42:26;96650.06;;;12.44;100.00
11085;BME280;5596;46.826;8.650;2022-10-31T09:45:04;96640.88;;;12.45;100.00
11085;BME280;5596;46.826;8.650;2022-10-31T09:47:48;96623.56;;;12.46;100.00
11085;BME280;5596;46.826;8.650;2022-10-31T09:50:38;96636.31;;;12.57;100.00
11085;BME280;5596;46.826;8.650;2022-10-31T09:53:31;96635.47;;;12.68;100.00
11085;BME280;5596;46.826;8.650;2022-10-31T09:56:02;96639.47;;;12.77;100.00
11085;BME280;5596;46.826;8.650;2022-10-31T09:58:34;96632.16;;;12.89;100.00
11085;BME280;5596;46.826;8.650;2022-10-31T10:01:05;96615.28;;;12.99;100.00
11085;BME280;5596;46.826;8.650;2022-10-31T10:03:38;96614.69;;;13.09;100.00
11085;BME280;5596;46.826;8.650;2022-10-31T10:06:28;96615.84;;;13.13;100.00
11085;BME280;5596;46.826;8.650;2022-10-31T10:09:34;96607.13;;;13.11;100.00
11085;BME280;5596;46.826;8.650;2022-10-31T10:12:40;96596.41;;;13.16;100.00
11085;BME280;5596;46.826;8.650;2022-10-31T10:15:28;96592.88;;;13.15;100.00
11085;BME280;5596;46.826;8.650;2022-10-31T10:18:05;96597.72;;;13.13;100.00
11085;BME280;5596;46.826;8.650;2022-10-31T10:20:41;96592.06;;;13.15;100.00
11085;BME280;5596;46.826;8.650;2022-10-31T10:23:27;96583.91;;;13.27;100.00
11085;BME280;5596;46.826;8.650;2022-10-31T10:26:02;96590.25;;;13.32;100.00
11085;BME280;5596;46.826;8.650;2022-10-31T10:28:35;96582.56;;;13.29;100.00
11085;BME280;5596;46.826;8.650;2022-10-31T10:31:15;96593.19;;;13.31;100.00
11085;BME280;5596;46.826;8.650;2022-10-31T10:33:47;96590.81;;;13.34;100.00
11085;BME280;5596;46.826;8.650;2022-10-31T10:36:25;96584.47;;;13.29;100.00
11085;BME280;5596;46.826;8.650;2022-10-31T10:38:59;96589.75;;;13.35;100.00
11085;BME280;5596;46.826;8.650;2022-10-31T10:41:30;96561.38;;;13.26;100.00
11085;BME280;5596;46.826;8.650;2022-10-31T10:43:58;96587.53;;;13.32;100.00
11085;BME280;5596;46.826;8.650;2022-10-31T10:46:32;96577.97;;;13.30;100.00
11085;BME280;5596;46.826;8.650;2022-10-31T10:49:27;96572.22;;;13.26;100.00
11085;BME280;5596;46.826;8.650;2022-10-31T10:52:00;96580.44;;;13.31;100.00
11085;BME280;5596;46.826;8.650;2022-10-31T10:54:49;96551.84;;;13.23;100.00
11085;BME280;5596;46.826;8.650;2022-10-31T10:57:36;96556.94;;;13.37;100.00
11085;BME280;5596;46.826;8.650;2022-10-31T11:00:17;96570.28;;;13.38;100.00
11085;BME280;5596;46.826;8.650;2022-10-31T11:02:45;96583.59;;;13.40;100.00
11085;BME280;5596;46.826;8.650;2022-10-31T11:05:19;96577.00;;;13.36;100.00
11085;BME280;5596;46.826;8.650;2022-10-31T11:07:50;96581.13;;;13.38;100.00
11085;BME280;5596;46.826;8.650;2022-10-31T11:10:17;96570.19;;;13.33;100.00
11085;BME280;5596;46.826;8.650;2022-10-31T11:12:56;96572.50;;;13.41;100.00
11085;BME280;5596;46.826;8.650;2022-10-31T11:15:26;96577.81;;;13.36;100.00
11085;BME280;5596;46.826;8.650;2022-10-31T11:17:55;96556.94;;;13.37;100.00
11085;BME280;5596;46.826;8.650;2022-10-31T11:20:26;96573.66;;;13.45;100.00
11085;BME280;5596;46.826;8.650;2022-10-31T11:23:04;96558.84;;;13.36;100.00
11085;BME280;5596;46.826;8.650;2022-10-31T11:25:32;96560.09;;;13.45;100.00
11085;BME280;5596;46.826;8.650;2022-10-31T11:28:00;96590.53;;;13.47;100.00
11085;BME280;5596;46.826;8.650;2022-10-31T11:30:28;96559.03;;;13.46;100.00
11085;BME280;5596;46.826;8.650;2022-10-31T11:32:56;96556.31;;;13.46;100.00
11085;BME280;5596;46.826;8.650;2022-10-31T11:35:24;96560.28;;;13.55;100.00
11085;BME280;5596;46.826;8.650;2022-10-31T11:37:53;96568.44;;;13.55;100.00
11085;BME280;5596;46.826;8.650;2022-10-31T11:40:26;96549.88;;;13.64;100.00
11085;BME280;5596;46.826;8.650;2022-10-31T11:42:56;96562.38;;;13.65;100.00
11085;BME280;5596;46.826;8.650;2022-10-31T11:45:29;96529.06;;;13.70;100.00
11085;BME280;5596;46.826;8.650;2022-10-31T11:47:59;96545.34;;;13.70;100.00
11085;BME280;5596;46.826;8.650;2022-10-31T11:50:32;96524.56;;;13.75;100.00
11085;BME280;5596;46.826;8.650;2022-10-31T11:53:01;96520.25;;;13.96;100.00
11085;BME280;5596;46.826;8.650;2022-10-31T11:55:36;96530.31;;;14.46;100.00
11085;BME280;5596;46.826;8.650;2022-10-31T11:58:05;96541.06;;;15.01;100.00
11085;BME280;5596;46.826;8.650;2022-10-31T12:00:49;96510.84;;;15.46;100.00
11085;BME280;5596;46.826;8.650;2022-10-31T12:03:33;96524.41;;;15.68;100.00
11085;BME280;5596;46.826;8.650;2022-10-31T12:06:08;96504.31;;;16.06;100.00
11085;BME280;5596;46.826;8.650;2022-10-31T12:08:38;96518.66;;;16.28;100.00
11085;BME280;5596;46.826;8.650;2022-10-31T12:11:20;96505.16;;;16.48;100.00
11085;BME280;5596;46.826;8.650;2022-10-31T12:14:01;96486.94;;;16.12;100.00
11085;BME280;5596;46.826;8.650;2022-10-31T12:16:34;96495.91;;;16.07;100.00
11085;BME280;5596;46.826;8.650;2022-10-31T12:19:06;96490.25;;;16.19;100.00
11085;BME280;5596;46.826;8.650;2022-10-31T12:21:55;96465.34;;;16.47;100.00
11085;BME280;5596;46.826;8.650;2022-10-31T12:24:41;96476.72;;;16.81;100.00
11085;BME280;5596;46.826;8.650;2022-10-31T12:27:18;96468.94;;;17.15;100.00
11085;BME280;5596;46.826;8.650;2022-10-31T12:30:02;96443.84;;;17.23;100.00
11085;BME280;5596;46.826;8.650;2022-10-31T12:32:40;96447.97;;;17.46;100.00
11085;BME280;5596;46.826;8.650;2022-10-31T12:35:24;96441.16;;;17.59;100.00
11085;BME280;5596;46.826;8.650;2022-10-31T12:38:12;96432.13;;;17.33;100.00
11085;BME280;5596;46.826;8.650;2022-10-31T12:40:53;96416.56;;;17.28;100.00
11085;BME280;5596;46.826;8.650;2022-10-31T12:43:34;96412.75;;;17.34;100.00
11085;BME280;5596;46.826;8.650;2022-10-31T12:46:03;96431.88;;;17.55;100.00
11085;BME280;5596;46.826;8.650;2022-10-31T12:48:46;96404.00;;;17.53;100.00
11085;BME280;5596;46.826;8.650;2022-10-31T12:51:24;96430.22;;;17.54;100.00
11085;BME280;5596;46.826;8.650;2022-10-31T12:54:08;96404.28;;;17.41;100.00
11085;BME280;5596;46.826;8.650;2022-10-31T12:56:46;96400.47;;;17.42;100.00
11085;BME280;5596;46.826;8.650;2022-10-31T12:59:23;96402.66;;;17.45;100.00
11085;BME280;5596;46.826;8.650;2022-10-31T13:01:59;96374.53;;;17.60;100.00
11085;BME280;5596;46.826;8.650;2022-10-31T13:04:35;96364.69;;;17.18;100.00
11085;BME280;5596;46.826;8.650;2022-10-31T13:07:05;96378.53;;;16.76;100.00
11085;BME280;5596;46.826;8.650;2022-10-31T13:09:37;96353.56;;;16.37;100.00
11085;BME280;5596;46.826;8.650;2022-10-31T13:12:08;96351.03;;;16.20;100.00
11085;BME280;5596;46.826;8.650;2022-10-31T13:14:40;96340.59;;;15.97;100.00
11085;BME280;5596;46.826;8.650;2022-10-31T13:17:15;96350.84;;;15.85;100.00
11085;BME280;5596;46.826;8.650;2022-10-31T13:19:46;96354.31;;;15.70;100.00
11085;BME280;5596;46.826;8.650;2022-10-31T13:22:18;96336.16;;;15.49;100.00
11085;BME280;5596;46.826;8.650;2022-10-31T13:24:53;96326.25;;;15.33;100.00
11085;BME280;5596;46.826;8.650;2022-10-31T13:27:23;96315.34;;;15.28;100.00
11085;BME280;5596;46.826;8.650;2022-10-31T13:29:58;96326.44;;;15.21;100.00
11085;BME280;5596;46.826;8.650;2022-10-31T13:32:30;96328.69;;;15.29;100.00
11085;BME280;5596;46.826;8.650;2022-10-31T13:35:04;96315.16;;;15.07;100.00
11085;BME280;5596;46.826;8.650;2022-10-31T13:37:36;96327.75;;;15.13;100.00
11085;BME280;5596;46.826;8.650;2022-10-31T13:40:12;96315.72;;;15.09;100.00
11085;BME280;5596;46.826;8.650;2022-10-31T13:42:56;96311.56;;;14.97;100.00